sensor_id;sensor_type;location;lat;lon;timestamp;temperature;humidity
24772;DHT22;12870;52.274;9.754;2023-09-07T00:00:10;18.20;99.90
24772;DHT22;12870;52.274;9.754;2023-09-07T00:02:36;18.20;99.90
24772;DHT22;12870;52.274;9.754;2023-09-07T00:05:02;18.20;99.90
24772;DHT22;12870;52.274;9.754;2023-09-07T00:07:29;18.10;99.90
24772;DHT22;12870;52.274;9.754;2023-09-07T00:09:54;18.10;99.90
24772;DHT22;12870;52.274;9.754;2023-09-07T00:12:20;18.10;99.90
24772;DHT22;12870;52.274;9.754;2023-09-07T00:14:46;18.10;99.90
24772;DHT22;12870;52.274;9.754;2023-09-07T00:17:11;18.00;99.90
24772;DHT22;12870;52.274;9.754;2023-09-07T00:19:37;18.00;99.90
24772;DHT22;12870;52.274;9.754;2023-09-07T00:22:03;18.00;99.90
24772;DHT22;12870;52.274;9.754;2023-09-07T00:24:30;17.90;99.90
24772;DHT22;12870;52.274;9.754;2023-09-07T00:26:57;17.90;99.90
24772;DHT22;12870;52.274;9.754;2023-09-07T00:29:25;17.80;99.90
24772;DHT22;12870;52.274;9.754;2023-09-07T00:31:51;17.70;99.90
24772;DHT22;12870;52.274;9.754;2023-09-07T00:34:17;17.70;99.90
24772;DHT22;12870;52.274;9.754;2023-09-07T00:36:42;17.70;99.90
24772;DHT22;12870;52.274;9.754;2023-09-07T00:39:08;17.60;99.90
24772;DHT22;12870;52.274;9.754;2023-09-07T00:41:34;17.60;99.90
24772;DHT22;12870;52.274;9.754;2023-09-07T00:43:59;17.60;99.90
24772;DHT22;12870;52.274;9.754;2023-09-07T00:46:25;17.60;99.90
24772;DHT22;12870;52.274;9.754;2023-09-07T00:48:52;17.50;99.90
24772;DHT22;12870;52.274;9.754;2023-09-07T00:51:17;17.50;99.90
24772;DHT22;12870;52.274;9.754;2023-09-07T00:53:43;17.40;99.90
24772;DHT22;12870;52.274;9.754;2023-09-07T00:56:09;17.40;99.90
24772;DHT22;12870;52.274;9.754;2023-09-07T00:58:35;17.40;99.90
24772;DHT22;12870;52.274;9.754;2023-09-07T01:01:01;17.30;99.90
24772;DHT22;12870;52.274;9.754;2023-09-07T01:03:28;17.30;99.90
24772;DHT22;12870;52.274;9.754;2023-09-07T01:06:03;17.20;99.90
24772;DHT22;12870;52.274;9.754;2023-09-07T01:08:35;17.20;99.90
24772;DHT22;12870;52.274;9.754;2023-09-07T01:11:18;17.10;99.90
24772;DHT22;12870;52.274;9.754;2023-09-07T01:13:45;17.10;99.90
24772;DHT22;12870;52.274;9.754;2023-09-07T01:16:12;17.10;99.90
24772;DHT22;12870;52.274;9.754;2023-09-07T01:18:39;17.10;99.90
24772;DHT22;12870;52.274;9.754;2023-09-07T01:21:07;17.10;99.90
24772;DHT22;12870;52.274;9.754;2023-09-07T01:23:37;17.10;99.90
24772;DHT22;12870;52.274;9.754;2023-09-07T01:26:05;17.00;99.90
24772;DHT22;12870;52.274;9.754;2023-09-07T01:28:30;17.00;99.90
24772;DHT22;12870;52.274;9.754;2023-09-07T01:30:56;17.00;99.90
24772;DHT22;12870;52.274;9.754;2023-09-07T01:33:23;17.00;99.90
24772;DHT22;12870;52.274;9.754;2023-09-07T01:35:49;17.00;99.90
24772;DHT22;12870;52.274;9.754;2023-09-07T01:38:14;17.00;99.90
24772;DHT22;12870;52.274;9.754;2023-09-07T01:40:40;17.00;99.90
24772;DHT22;12870;52.274;9.754;2023-09-07T01:43:06;16.90;99.90
24772;DHT22;12870;52.274;9.754;2023-09-07T01:45:31;16.90;99.90
24772;DHT22;12870;52.274;9.754;2023-09-07T01:47:58;16.90;99.90
24772;DHT22;12870;52.274;9.754;2023-09-07T01:50:24;16.80;99.90
24772;DHT22;12870;52.274;9.754;2023-09-07T01:52:51;16.80;99.90
24772;DHT22;12870;52.274;9.754;2023-09-07T01:55:17;16.80;99.90
24772;DHT22;12870;52.274;9.754;2023-09-07T01:57:43;16.80;99.90
24772;DHT22;12870;52.274;9.754;2023-09-07T02:00:10;16.80;99.90
24772;DHT22;12870;52.274;9.754;2023-09-07T02:02:36;16.70;99.90
24772;DHT22;12870;52.274;9.754;2023-09-07T02:05:01;16.70;99.90
24772;DHT22;12870;52.274;9.754;2023-09-07T02:07:27;16.70;99.90
24772;DHT22;12870;52.274;9.754;2023-09-07T02:09:53;16.70;99.90
24772;DHT22;12870;52.274;9.754;2023-09-07T02:12:19;16.60;99.90
24772;DHT22;12870;52.274;9.754;2023-09-07T02:14:44;16.60;99.90
24772;DHT22;12870;52.274;9.754;2023-09-07T02:17:10;16.60;99.90
24772;DHT22;12870;52.274;9.754;2023-09-07T02:19:39;16.50;99.90
24772;DHT22;12870;52.274;9.754;2023-09-07T02:22:05;16.50;99.90
24772;DHT22;12870;52.274;9.754;2023-09-07T02:24:31;16.60;99.90
24772;DHT22;12870;52.274;9.754;2023-09-07T02:26:56;16.60;99.90
24772;DHT22;12870;52.274;9.754;2023-09-07T02:29:22;16.60;99.90
24772;DHT22;12870;52.274;9.754;2023-09-07T02:31:47;16.60;99.90
24772;DHT22;12870;52.274;9.754;2023-09-07T02:34:13;16.70;99.90
24772;DHT22;12870;52.274;9.754;2023-09-07T02:36:39;16.70;99.90
24772;DHT22;12870;52.274;9.754;2023-09-07T02:39:04;16.60;99.90
24772;DHT22;12870;52.274;9.754;2023-09-07T02:41:31;16.70;99.90
24772;DHT22;12870;52.274;9.754;2023-09-07T02:43:56;16.70;99.90
24772;DHT22;12870;52.274;9.754;2023-09-07T02:46:22;16.70;99.90
24772;DHT22;12870;52.274;9.754;2023-09-07T02:48:48;16.70;99.90
24772;DHT22;12870;52.274;9.754;2023-09-07T02:51:13;16.70;99.90
24772;DHT22;12870;52.274;9.754;2023-09-07T02:53:39;16.70;99.90
24772;DHT22;12870;52.274;9.754;2023-09-07T02:56:05;16.70;99.90
24772;DHT22;12870;52.274;9.754;2023-09-07T02:58:31;16.70;99.90
24772;DHT22;12870;52.274;9.754;2023-09-07T03:00:56;16.60;99.90
24772;DHT22;12870;52.274;9.754;2023-09-07T03:03:23;16.70;99.90
24772;DHT22;12870;52.274;9.754;2023-09-07T03:05:49;16.60;99.90
24772;DHT22;12870;52.274;9.754;2023-09-07T03:08:14;16.60;99.90
24772;DHT22;12870;52.274;9.754;2023-09-07T03:10:40;16.60;99.90
24772;DHT22;12870;52.274;9.754;2023-09-07T03:13:07;16.60;99.90
24772;DHT22;12870;52.274;9.754;2023-09-07T03:15:33;16.60;99.90
24772;DHT22;12870;52.274;9.754;2023-09-07T03:17:59;16.50;99.90
24772;DHT22;12870;52.274;9.754;2023-09-07T03:20:25;16.40;99.90
24772;DHT22;12870;52.274;9.754;2023-09-07T03:22:51;16.40;99.90
24772;DHT22;12870;52.274;9.754;2023-09-07T03:25:16;16.30;99.90
24772;DHT22;12870;52.274;9.754;2023-09-07T03:27:42;16.30;99.90
24772;DHT22;12870;52.274;9.754;2023-09-07T03:30:08;16.20;99.90
24772;DHT22;12870;52.274;9.754;2023-09-07T03:32:34;16.10;99.90
24772;DHT22;12870;52.274;9.754;2023-09-07T03:35:00;16.00;99.90
24772;DHT22;12870;52.274;9.754;2023-09-07T03:37:27;15.90;99.90
24772;DHT22;12870;52.274;9.754;2023-09-07T03:39:53;15.80;99.90
24772;DHT22;12870;52.274;9.754;2023-09-07T03:42:19;15.70;99.90
24772;DHT22;12870;52.274;9.754;2023-09-07T03:44:46;15.60;99.90
24772;DHT22;12870;52.274;9.754;2023-09-07T03:47:14;15.60;99.90
24772;DHT22;12870;52.274;9.754;2023-09-07T03:49:41;15.50;99.90
24772;DHT22;12870;52.274;9.754;2023-09-07T03:52:06;15.50;99.90
24772;DHT22;12870;52.274;9.754;2023-09-07T03:54:32;15.50;99.90
24772;DHT22;12870;52.274;9.754;2023-09-07T03:56:58;15.50;99.90
24772;DHT22;12870;52.274;9.754;2023-09-07T03:59:23;15.60;99.90
24772;DHT22;12870;52.274;9.754;2023-09-07T04:01:49;15.60;99.90
24772;DHT22;12870;52.274;9.754;2023-09-07T04:04:15;15.60;99.90
24772;DHT22;12870;52.274;9.754;2023-09-07T04:06:41;15.60;99.90
24772;DHT22;12870;52.274;9.754;2023-09-07T04:09:07;15.60;99.90
24772;DHT22;12870;52.274;9.754;2023-09-07T04:11:32;15.60;99.90
24772;DHT22;12870;52.274;9.754;2023-09-07T04:13:58;15.60;99.90
24772;DHT22;12870;52.274;9.754;2023-09-07T04:16:24;15.50;99.90
24772;DHT22;12870;52.274;9.754;2023-09-07T04:18:49;15.50;99.90
24772;DHT22;12870;52.274;9.754;2023-09-07T04:21:15;15.40;99.90
24772;DHT22;12870;52.274;9.754;2023-09-07T04:23:41;15.50;99.90
24772;DHT22;12870;52.274;9.754;2023-09-07T04:26:10;15.40;99.90
24772;DHT22;12870;52.274;9.754;2023-09-07T04:28:37;15.40;99.90
24772;DHT22;12870;52.274;9.754;2023-09-07T04:31:03;15.40;99.90
24772;DHT22;12870;52.274;9.754;2023-09-07T04:33:33;15.30;99.90
24772;DHT22;12870;52.274;9.754;2023-09-07T04:36:12;15.30;99.90
24772;DHT22;12870;52.274;9.754;2023-09-07T04:38:39;15.30;99.90
24772;DHT22;12870;52.274;9.754;2023-09-07T04:41:14;15.30;99.90
24772;DHT22;12870;52.274;9.754;2023-09-07T04:43:41;15.20;99.90
24772;DHT22;12870;52.274;9.754;2023-09-07T04:46:12;15.20;99.90
24772;DHT22;12870;52.274;9.754;2023-09-07T04:48:38;15.20;99.90
24772;DHT22;12870;52.274;9.754;2023-09-07T04:51:08;15.20;99.90
24772;DHT22;12870;52.274;9.754;2023-09-07T04:53:36;15.10;99.90
24772;DHT22;12870;52.274;9.754;2023-09-07T04:56:03;15.10;99.90
24772;DHT22;12870;52.274;9.754;2023-09-07T04:58:29;15.20;99.90
24772;DHT22;12870;52.274;9.754;2023-09-07T05:01:01;15.20;99.90
24772;DHT22;12870;52.274;9.754;2023-09-07T05:03:27;15.20;99.90
24772;DHT22;12870;52.274;9.754;2023-09-07T05:05:53;15.20;99.90
24772;DHT22;12870;52.274;9.754;2023-09-07T05:08:19;15.10;99.90
24772;DHT22;12870;52.274;9.754;2023-09-07T05:10:45;15.20;99.90
24772;DHT22;12870;52.274;9.754;2023-09-07T05:13:11;15.20;99.90
24772;DHT22;12870;52.274;9.754;2023-09-07T05:15:36;15.20;99.90
24772;DHT22;12870;52.274;9.754;2023-09-07T05:18:02;15.20;99.90
24772;DHT22;12870;52.274;9.754;2023-09-07T05:20:30;15.30;99.90
24772;DHT22;12870;52.274;9.754;2023-09-07T05:22:56;15.30;99.90
24772;DHT22;12870;52.274;9.754;2023-09-07T05:25:22;15.40;99.90
24772;DHT22;12870;52.274;9.754;2023-09-07T05:27:48;15.40;99.90
24772;DHT22;12870;52.274;9.754;2023-09-07T05:30:14;15.50;99.90
24772;DHT22;12870;52.274;9.754;2023-09-07T05:32:40;15.60;99.90
24772;DHT22;12870;52.274;9.754;2023-09-07T05:35:07;15.70;99.90
24772;DHT22;12870;52.274;9.754;2023-09-07T05:37:33;15.70;99.90
24772;DHT22;12870;52.274;9.754;2023-09-07T05:39:58;15.80;99.90
24772;DHT22;12870;52.274;9.754;2023-09-07T05:42:24;15.90;99.90
24772;DHT22;12870;52.274;9.754;2023-09-07T05:44:51;16.00;99.90
24772;DHT22;12870;52.274;9.754;2023-09-07T05:47:17;16.10;99.90
24772;DHT22;12870;52.274;9.754;2023-09-07T05:49:43;16.20;99.90
24772;DHT22;12870;52.274;9.754;2023-09-07T05:52:08;16.30;99.90
24772;DHT22;12870;52.274;9.754;2023-09-07T05:54:34;16.40;99.90
24772;DHT22;12870;52.274;9.754;2023-09-07T05:57:00;16.50;99.90
24772;DHT22;12870;52.274;9.754;2023-09-07T05:59:26;16.70;99.90
24772;DHT22;12870;52.274;9.754;2023-09-07T06:01:51;16.80;99.90
24772;DHT22;12870;52.274;9.754;2023-09-07T06:04:17;16.90;99.90
24772;DHT22;12870;52.274;9.754;2023-09-07T06:06:43;16.90;99.90
24772;DHT22;12870;52.274;9.754;2023-09-07T06:09:08;17.00;99.90
24772;DHT22;12870;52.274;9.754;2023-09-07T06:11:35;17.20;99.90
24772;DHT22;12870;52.274;9.754;2023-09-07T06:14:00;17.30;99.90
24772;DHT22;12870;52.274;9.754;2023-09-07T06:16:26;17.30;99.90
24772;DHT22;12870;52.274;9.754;2023-09-07T06:18:52;17.40;99.90
24772;DHT22;12870;52.274;9.754;2023-09-07T06:21:17;17.50;99.90
24772;DHT22;12870;52.274;9.754;2023-09-07T06:23:43;17.60;99.90
24772;DHT22;12870;52.274;9.754;2023-09-07T06:26:09;17.60;99.90
24772;DHT22;12870;52.274;9.754;2023-09-07T06:28:36;17.70;99.90
24772;DHT22;12870;52.274;9.754;2023-09-07T06:31:02;17.70;99.90
24772;DHT22;12870;52.274;9.754;2023-09-07T06:33:28;17.80;99.90
24772;DHT22;12870;52.274;9.754;2023-09-07T06:35:53;17.80;99.90
24772;DHT22;12870;52.274;9.754;2023-09-07T06:38:19;18.00;99.90
24772;DHT22;12870;52.274;9.754;2023-09-07T06:40:48;18.00;99.90
24772;DHT22;12870;52.274;9.754;2023-09-07T06:43:15;18.10;99.90
24772;DHT22;12870;52.274;9.754;2023-09-07T06:45:40;18.20;99.90
24772;DHT22;12870;52.274;9.754;2023-09-07T06:48:06;18.20;99.90
24772;DHT22;12870;52.274;9.754;2023-09-07T06:50:32;18.30;99.90
24772;DHT22;12870;52.274;9.754;2023-09-07T06:52:57;18.40;99.90
24772;DHT22;12870;52.274;9.754;2023-09-07T06:55:23;18.50;99.90
24772;DHT22;12870;52.274;9.754;2023-09-07T06:57:49;18.60;99.90
24772;DHT22;12870;52.274;9.754;2023-09-07T07:00:15;18.70;99.90
24772;DHT22;12870;52.274;9.754;2023-09-07T07:02:40;18.70;99.90
24772;DHT22;12870;52.274;9.754;2023-09-07T07:05:06;18.80;99.90
24772;DHT22;12870;52.274;9.754;2023-09-07T07:07:32;18.90;99.90
24772;DHT22;12870;52.274;9.754;2023-09-07T07:09:58;19.00;99.90
24772;DHT22;12870;52.274;9.754;2023-09-07T07:12:23;19.10;99.90
24772;DHT22;12870;52.274;9.754;2023-09-07T07:14:49;19.10;99.90
24772;DHT22;12870;52.274;9.754;2023-09-07T07:17:15;19.20;99.90
24772;DHT22;12870;52.274;9.754;2023-09-07T07:19:40;19.30;99.90
24772;DHT22;12870;52.274;9.754;2023-09-07T07:22:08;19.40;99.90
24772;DHT22;12870;52.274;9.754;2023-09-07T07:24:34;19.50;99.90
24772;DHT22;12870;52.274;9.754;2023-09-07T07:27:00;19.50;99.90
24772;DHT22;12870;52.274;9.754;2023-09-07T07:29:25;19.60;99.90
24772;DHT22;12870;52.274;9.754;2023-09-07T07:31:51;19.70;99.90
24772;DHT22;12870;52.274;9.754;2023-09-07T07:34:17;19.80;99.90
24772;DHT22;12870;52.274;9.754;2023-09-07T07:36:42;19.90;99.90
24772;DHT22;12870;52.274;9.754;2023-09-07T07:39:08;19.90;99.90
24772;DHT22;12870;52.274;9.754;2023-09-07T07:41:34;20.00;99.90
24772;DHT22;12870;52.274;9.754;2023-09-07T07:43:59;20.20;99.90
24772;DHT22;12870;52.274;9.754;2023-09-07T07:46:25;20.30;99.90
24772;DHT22;12870;52.274;9.754;2023-09-07T07:48:51;20.30;99.90
24772;DHT22;12870;52.274;9.754;2023-09-07T07:51:16;20.40;99.90
24772;DHT22;12870;52.274;9.754;2023-09-07T07:53:42;20.50;99.90
24772;DHT22;12870;52.274;9.754;2023-09-07T07:56:17;20.60;99.90
24772;DHT22;12870;52.274;9.754;2023-09-07T07:58:43;20.70;99.90
24772;DHT22;12870;52.274;9.754;2023-09-07T08:01:16;20.70;99.90
24772;DHT22;12870;52.274;9.754;2023-09-07T08:03:42;20.80;99.90
24772;DHT22;12870;52.274;9.754;2023-09-07T08:06:09;21.00;99.90
24772;DHT22;12870;52.274;9.754;2023-09-07T08:08:35;21.10;99.90
24772;DHT22;12870;52.274;9.754;2023-09-07T08:11:01;21.20;99.90
24772;DHT22;12870;52.274;9.754;2023-09-07T08:13:34;21.40;99.90
24772;DHT22;12870;52.274;9.754;2023-09-07T08:16:03;21.50;99.90
24772;DHT22;12870;52.274;9.754;2023-09-07T08:18:29;21.70;99.90
24772;DHT22;12870;52.274;9.754;2023-09-07T08:20:58;21.80;99.90
24772;DHT22;12870;52.274;9.754;2023-09-07T08:23:24;21.90;99.90
24772;DHT22;12870;52.274;9.754;2023-09-07T08:25:52;22.00;99.90
24772;DHT22;12870;52.274;9.754;2023-09-07T08:28:18;22.10;99.90
24772;DHT22;12870;52.274;9.754;2023-09-07T08:30:49;22.30;99.90
24772;DHT22;12870;52.274;9.754;2023-09-07T08:33:14;22.50;99.90
24772;DHT22;12870;52.274;9.754;2023-09-07T08:35:40;22.60;99.90
24772;DHT22;12870;52.274;9.754;2023-09-07T08:38:10;22.80;99.90
24772;DHT22;12870;52.274;9.754;2023-09-07T08:40:36;22.90;99.90
24772;DHT22;12870;52.274;9.754;2023-09-07T08:43:08;23.00;99.90
24772;DHT22;12870;52.274;9.754;2023-09-07T08:45:41;23.10;99.90
24772;DHT22;12870;52.274;9.754;2023-09-07T08:48:08;23.30;99.90
24772;DHT22;12870;52.274;9.754;2023-09-07T08:50:35;23.40;99.90
24772;DHT22;12870;52.274;9.754;2023-09-07T08:53:03;23.60;99.90
24772;DHT22;12870;52.274;9.754;2023-09-07T08:55:30;23.60;99.90
24772;DHT22;12870;52.274;9.754;2023-09-07T08:57:56;23.80;99.90
24772;DHT22;12870;52.274;9.754;2023-09-07T09:00:22;23.90;99.90
24772;DHT22;12870;52.274;9.754;2023-09-07T09:02:48;24.00;99.90
24772;DHT22;12870;52.274;9.754;2023-09-07T09:05:15;24.20;99.90
24772;DHT22;12870;52.274;9.754;2023-09-07T09:07:43;24.40;99.90
24772;DHT22;12870;52.274;9.754;2023-09-07T09:10:10;24.50;99.90
24772;DHT22;12870;52.274;9.754;2023-09-07T09:12:35;24.60;99.90
24772;DHT22;12870;52.274;9.754;2023-09-07T09:15:01;24.70;99.90
24772;DHT22;12870;52.274;9.754;2023-09-07T09:17:31;24.80;99.90
24772;DHT22;12870;52.274;9.754;2023-09-07T09:19:57;24.90;99.90
24772;DHT22;12870;52.274;9.754;2023-09-07T09:22:22;24.90;99.90
24772;DHT22;12870;52.274;9.754;2023-09-07T09:24:49;25.00;99.90
24772;DHT22;12870;52.274;9.754;2023-09-07T09:27:16;25.20;99.90
24772;DHT22;12870;52.274;9.754;2023-09-07T09:29:42;25.30;99.90
24772;DHT22;12870;52.274;9.754;2023-09-07T09:32:08;25.40;99.90
24772;DHT22;12870;52.274;9.754;2023-09-07T09:34:35;25.40;99.90
24772;DHT22;12870;52.274;9.754;2023-09-07T09:37:01;25.50;99.90
24772;DHT22;12870;52.274;9.754;2023-09-07T09:39:29;25.60;99.90
24772;DHT22;12870;52.274;9.754;2023-09-07T09:41:55;25.80;99.90
24772;DHT22;12870;52.274;9.754;2023-09-07T09:44:22;25.90;99.90
24772;DHT22;12870;52.274;9.754;2023-09-07T09:46:54;26.00;99.90
24772;DHT22;12870;52.274;9.754;2023-09-07T09:49:21;26.10;99.90
24772;DHT22;12870;52.274;9.754;2023-09-07T09:51:51;26.20;99.90
24772;DHT22;12870;52.274;9.754;2023-09-07T09:54:17;26.30;99.90
24772;DHT22;12870;52.274;9.754;2023-09-07T09:56:43;26.50;99.90
24772;DHT22;12870;52.274;9.754;2023-09-07T09:59:11;26.60;99.90
24772;DHT22;12870;52.274;9.754;2023-09-07T10:01:55;26.70;99.90
24772;DHT22;12870;52.274;9.754;2023-09-07T10:04:22;26.80;99.90
24772;DHT22;12870;52.274;9.754;2023-09-07T10:06:56;27.00;99.90
24772;DHT22;12870;52.274;9.754;2023-09-07T10:09:22;27.20;99.90
24772;DHT22;12870;52.274;9.754;2023-09-07T10:11:52;27.40;99.90
24772;DHT22;12870;52.274;9.754;2023-09-07T10:14:21;27.50;99.90
24772;DHT22;12870;52.274;9.754;2023-09-07T10:16:49;27.60;99.90
24772;DHT22;12870;52.274;9.754;2023-09-07T10:19:21;27.80;99.90
24772;DHT22;12870;52.274;9.754;2023-09-07T10:21:48;27.80;99.90
24772;DHT22;12870;52.274;9.754;2023-09-07T10:24:29;28.00;99.90
24772;DHT22;12870;52.274;9.754;2023-09-07T10:29:27;28.10;99.90
24772;DHT22;12870;52.274;9.754;2023-09-07T10:31:53;28.30;99.90
24772;DHT22;12870;52.274;9.754;2023-09-07T10:34:19;28.60;99.90
24772;DHT22;12870;52.274;9.754;2023-09-07T10:36:45;28.70;99.90
24772;DHT22;12870;52.274;9.754;2023-09-07T10:39:11;29.10;99.90
24772;DHT22;12870;52.274;9.754;2023-09-07T10:41:45;29.70;99.90
24772;DHT22;12870;52.274;9.754;2023-09-07T10:44:11;30.70;99.90
24772;DHT22;12870;52.274;9.754;2023-09-07T10:46:38;31.50;99.90
24772;DHT22;12870;52.274;9.754;2023-09-07T10:49:07;32.00;99.40
24772;DHT22;12870;52.274;9.754;2023-09-07T10:51:40;32.70;99.60
24772;DHT22;12870;52.274;9.754;2023-09-07T10:54:14;33.10;96.80
24772;DHT22;12870;52.274;9.754;2023-09-07T10:56:42;33.30;94.70
24772;DHT22;12870;52.274;9.754;2023-09-07T10:59:08;33.50;93.40
24772;DHT22;12870;52.274;9.754;2023-09-07T11:01:33;34.00;93.30
24772;DHT22;12870;52.274;9.754;2023-09-07T11:03:59;34.40;91.50
24772;DHT22;12870;52.274;9.754;2023-09-07T11:06:25;34.50;88.80
24772;DHT22;12870;52.274;9.754;2023-09-07T11:08:51;35.10;88.40
24772;DHT22;12870;52.274;9.754;2023-09-07T11:11:16;35.30;84.60
24772;DHT22;12870;52.274;9.754;2023-09-07T11:13:42;35.50;81.00
24772;DHT22;12870;52.274;9.754;2023-09-07T11:16:09;35.70;77.70
24772;DHT22;12870;52.274;9.754;2023-09-07T11:18:35;36.00;76.50
24772;DHT22;12870;52.274;9.754;2023-09-07T11:21:02;36.30;75.00
24772;DHT22;12870;52.274;9.754;2023-09-07T11:23:29;36.10;72.40
24772;DHT22;12870;52.274;9.754;2023-09-07T11:26:04;36.70;70.40
24772;DHT22;12870;52.274;9.754;2023-09-07T11:28:31;36.90;67.20
24772;DHT22;12870;52.274;9.754;2023-09-07T11:30:58;37.00;67.30
24772;DHT22;12870;52.274;9.754;2023-09-07T11:33:24;37.10;64.50
24772;DHT22;12870;52.274;9.754;2023-09-07T11:35:50;37.20;61.10
24772;DHT22;12870;52.274;9.754;2023-09-07T11:38:17;37.30;59.80
24772;DHT22;12870;52.274;9.754;2023-09-07T11:40:44;37.30;57.80
24772;DHT22;12870;52.274;9.754;2023-09-07T11:43:16;37.60;59.40
24772;DHT22;12870;52.274;9.754;2023-09-07T11:45:45;38.40;59.70
24772;DHT22;12870;52.274;9.754;2023-09-07T11:48:11;38.40;54.50
24772;DHT22;12870;52.274;9.754;2023-09-07T11:50:38;38.50;53.40
24772;DHT22;12870;52.274;9.754;2023-09-07T11:53:05;38.40;51.40
24772;DHT22;12870;52.274;9.754;2023-09-07T11:55:31;38.50;54.30
24772;DHT22;12870;52.274;9.754;2023-09-07T11:57:57;39.10;50.70
24772;DHT22;12870;52.274;9.754;2023-09-07T12:00:23;38.90;47.30
24772;DHT22;12870;52.274;9.754;2023-09-07T12:02:49;38.70;47.50
24772;DHT22;12870;52.274;9.754;2023-09-07T12:05:15;38.80;47.50
24772;DHT22;12870;52.274;9.754;2023-09-07T12:07:44;38.90;46.70
24772;DHT22;12870;52.274;9.754;2023-09-07T12:10:09;39.00;45.30
24772;DHT22;12870;52.274;9.754;2023-09-07T12:12:40;38.90;45.30
24772;DHT22;12870;52.274;9.754;2023-09-07T12:15:06;38.60;42.80
24772;DHT22;12870;52.274;9.754;2023-09-07T12:17:33;38.60;44.30
24772;DHT22;12870;52.274;9.754;2023-09-07T12:20:00;38.20;44.00
24772;DHT22;12870;52.274;9.754;2023-09-07T12:22:26;38.60;44.60
24772;DHT22;12870;52.274;9.754;2023-09-07T12:24:52;39.00;44.10
24772;DHT22;12870;52.274;9.754;2023-09-07T12:27:18;39.40;42.20
24772;DHT22;12870;52.274;9.754;2023-09-07T12:29:44;39.20;40.90
24772;DHT22;12870;52.274;9.754;2023-09-07T12:32:10;39.30;40.20
24772;DHT22;12870;52.274;9.754;2023-09-07T12:34:36;39.10;39.90
24772;DHT22;12870;52.274;9.754;2023-09-07T12:37:02;39.20;40.40
24772;DHT22;12870;52.274;9.754;2023-09-07T12:39:31;39.30;39.70
24772;DHT22;12870;52.274;9.754;2023-09-07T12:41:57;39.40;37.80
24772;DHT22;12870;52.274;9.754;2023-09-07T12:44:23;38.80;37.40
24772;DHT22;12870;52.274;9.754;2023-09-07T12:46:48;39.30;38.30
24772;DHT22;12870;52.274;9.754;2023-09-07T12:49:14;39.30;37.10
24772;DHT22;12870;52.274;9.754;2023-09-07T12:51:41;38.90;36.50
24772;DHT22;12870;52.274;9.754;2023-09-07T12:54:06;38.70;37.60
24772;DHT22;12870;52.274;9.754;2023-09-07T12:56:32;38.60;36.00
24772;DHT22;12870;52.274;9.754;2023-09-07T12:58:58;38.70;35.60
24772;DHT22;12870;52.274;9.754;2023-09-07T13:01:25;38.60;35.00
24772;DHT22;12870;52.274;9.754;2023-09-07T13:03:51;38.60;34.30
24772;DHT22;12870;52.274;9.754;2023-09-07T13:06:17;38.60;34.40
24772;DHT22;12870;52.274;9.754;2023-09-07T13:08:44;38.20;35.30
24772;DHT22;12870;52.274;9.754;2023-09-07T13:11:11;38.40;35.40
24772;DHT22;12870;52.274;9.754;2023-09-07T13:13:37;38.10;33.80
24772;DHT22;12870;52.274;9.754;2023-09-07T13:16:02;38.40;35.20
24772;DHT22;12870;52.274;9.754;2023-09-07T13:18:28;38.30;34.20
24772;DHT22;12870;52.274;9.754;2023-09-07T13:20:54;38.50;35.50
24772;DHT22;12870;52.274;9.754;2023-09-07T13:23:26;38.70;33.80
24772;DHT22;12870;52.274;9.754;2023-09-07T13:25:52;38.50;32.50
24772;DHT22;12870;52.274;9.754;2023-09-07T13:28:17;38.50;32.40
24772;DHT22;12870;52.274;9.754;2023-09-07T13:30:43;37.90;32.30
24772;DHT22;12870;52.274;9.754;2023-09-07T13:33:08;37.50;33.80
24772;DHT22;12870;52.274;9.754;2023-09-07T13:35:34;37.80;35.50
24772;DHT22;12870;52.274;9.754;2023-09-07T13:38:00;37.60;34.50
24772;DHT22;12870;52.274;9.754;2023-09-07T13:40:25;37.60;33.40
24772;DHT22;12870;52.274;9.754;2023-09-07T13:42:55;37.50;33.60
24772;DHT22;12870;52.274;9.754;2023-09-07T13:45:21;37.90;32.70
24772;DHT22;12870;52.274;9.754;2023-09-07T13:47:47;37.90;34.90
24772;DHT22;12870;52.274;9.754;2023-09-07T13:50:13;38.30;34.40
24772;DHT22;12870;52.274;9.754;2023-09-07T13:52:39;38.90;33.10
24772;DHT22;12870;52.274;9.754;2023-09-07T13:55:05;39.20;32.40
24772;DHT22;12870;52.274;9.754;2023-09-07T13:57:32;39.20;31.20
24772;DHT22;12870;52.274;9.754;2023-09-07T13:59:57;38.60;31.00
24772;DHT22;12870;52.274;9.754;2023-09-07T14:02:23;38.40;31.30
24772;DHT22;12870;52.274;9.754;2023-09-07T14:04:49;38.30;31.50
24772;DHT22;12870;52.274;9.754;2023-09-07T14:07:15;38.20;31.30
24772;DHT22;12870;52.274;9.754;2023-09-07T14:09:40;38.60;32.50
24772;DHT22;12870;52.274;9.754;2023-09-07T14:12:06;38.30;31.50
24772;DHT22;12870;52.274;9.754;2023-09-07T14:14:32;38.30;31.50
24772;DHT22;12870;52.274;9.754;2023-09-07T14:16:58;38.30;30.70
24772;DHT22;12870;52.274;9.754;2023-09-07T14:19:25;38.50;30.30
24772;DHT22;12870;52.274;9.754;2023-09-07T14:21:56;37.60;30.50
24772;DHT22;12870;52.274;9.754;2023-09-07T14:24:22;37.60;30.60
24772;DHT22;12870;52.274;9.754;2023-09-07T14:26:48;37.70;30.60
24772;DHT22;12870;52.274;9.754;2023-09-07T14:29:13;37.70;30.10
24772;DHT22;12870;52.274;9.754;2023-09-07T14:31:39;37.90;30.90
24772;DHT22;12870;52.274;9.754;2023-09-07T14:34:05;38.40;30.20
24772;DHT22;12870;52.274;9.754;2023-09-07T14:36:31;38.30;30.00
24772;DHT22;12870;52.274;9.754;2023-09-07T14:38:56;38.40;29.80
24772;DHT22;12870;52.274;9.754;2023-09-07T14:41:22;38.60;29.50
24772;DHT22;12870;52.274;9.754;2023-09-07T14:43:48;38.60;29.10
24772;DHT22;12870;52.274;9.754;2023-09-07T14:46:14;38.40;29.40
24772;DHT22;12870;52.274;9.754;2023-09-07T14:48:41;38.20;28.80
24772;DHT22;12870;52.274;9.754;2023-09-07T14:51:07;37.60;29.00
24772;DHT22;12870;52.274;9.754;2023-09-07T14:53:33;37.50;29.30
24772;DHT22;12870;52.274;9.754;2023-09-07T14:55:59;37.10;29.20
24772;DHT22;12870;52.274;9.754;2023-09-07T14:58:25;36.90;29.20
24772;DHT22;12870;52.274;9.754;2023-09-07T15:00:51;36.90;29.40
24772;DHT22;12870;52.274;9.754;2023-09-07T15:03:16;37.30;29.40
24772;DHT22;12870;52.274;9.754;2023-09-07T15:05:42;37.10;28.50
24772;DHT22;12870;52.274;9.754;2023-09-07T15:08:08;37.30;28.50
24772;DHT22;12870;52.274;9.754;2023-09-07T15:10:33;37.10;29.40
24772;DHT22;12870;52.274;9.754;2023-09-07T15:13:00;37.00;29.30
24772;DHT22;12870;52.274;9.754;2023-09-07T15:15:28;36.90;29.40
24772;DHT22;12870;52.274;9.754;2023-09-07T15:17:54;36.60;28.60
24772;DHT22;12870;52.274;9.754;2023-09-07T15:20:20;36.30;28.50
24772;DHT22;12870;52.274;9.754;2023-09-07T15:22:46;36.30;28.60
24772;DHT22;12870;52.274;9.754;2023-09-07T15:25:11;36.20;28.80
24772;DHT22;12870;52.274;9.754;2023-09-07T15:27:37;36.20;28.70